Time;durP1;ratioP1;P1;durP2;ratioP2;P2;SDS_P1;SDS_P2;PMS_P1;PMS_P2;Temp;Humidity;BMP_temperature;BMP_pressure;BME280_temperature;BME280_humidity;BME280_pressure;Samples;Min_cycle;Max_cycle;Signal;HPM_P1;HPM_P2
2021/06/11 00:00:07;;;;;;;4.35;2.65;;;20.40;58.70;;;;;;5036030;28;20020;-76
2021/06/11 00:02:33;;;;;;;6.38;3.38;;;20.40;58.90;;;;;;5054292;28;20140;-77
2021/06/11 00:04:58;;;;;;;4.03;3.55;;;20.30;58.90;;;;;;5035642;28;20478;-77
2021/06/11 00:07:24;;;;;;;4.28;3.83;;;20.30;60.00;;;;;;5037688;28;20091;-77
2021/06/11 00:09:50;;;;;;;3.88;3.10;;;20.10;59.50;;;;;;5032973;28;20013;-77
2021/06/11 00:12:15;;;;;;;3.50;3.17;;;20.00;60.00;;;;;;5037933;28;20483;-77
2021/06/11 00:14:42;;;;;;;3.78;2.90;;;19.90;60.10;;;;;;5037334;28;20029;-77
2021/06/11 00:17:09;;;;;;;5.95;3.80;;;19.90;60.30;;;;;;5038751;28;20033;-77
2021/06/11 00:19:34;;;;;;;4.32;3.92;;;19.90;60.30;;;;;;5053032;28;20029;-77
2021/06/11 00:22:00;;;;;;;4.07;3.72;;;19.90;60.70;;;;;;5038962;28;20104;-77
2021/06/11 00:24:26;;;;;;;3.28;2.97;;;19.80;60.50;;;;;;5035212;28;20041;-77
2021/06/11 00:26:52;;;;;;;3.50;3.17;;;19.80;60.80;;;;;;5036591;28;20554;-77
2021/06/11 00:29:17;;;;;;;5.53;3.65;;;19.80;61.00;;;;;;5036569;28;20112;-77
2021/06/11 00:31:43;;;;;;;4.45;3.75;;;19.80;61.10;;;;;;5038309;28;20128;-77
2021/06/11 00:34:08;;;;;;;7.38;4.10;;;19.80;61.10;;;;;;5036291;28;20025;-77
2021/06/11 00:36:34;;;;;;;6.40;4.15;;;19.80;61.40;;;;;;5038167;28;20133;-76
2021/06/11 00:38:59;;;;;;;4.82;4.13;;;19.70;61.50;;;;;;5036488;28;20095;-75
2021/06/11 00:41:25;;;;;;;4.82;4.05;;;19.70;61.70;;;;;;5033266;28;20038;-75
2021/06/11 00:43:50;;;;;;;3.78;3.47;;;19.60;62.00;;;;;;5036507;28;20029;-75
2021/06/11 00:46:16;;;;;;;5.90;4.25;;;19.60;62.10;;;;;;5040076;28;20021;-75
2021/06/11 00:48:41;;;;;;;11.13;4.43;;;19.50;62.20;;;;;;5041238;28;20032;-74
2021/06/11 00:51:07;;;;;;;5.90;4.50;;;19.50;62.60;;;;;;5042102;28;20032;-74
2021/06/11 00:53:32;;;;;;;4.13;3.22;;;19.50;62.30;;;;;;5041204;28;20052;-75
2021/06/11 00:55:58;;;;;;;5.13;4.60;;;19.50;62.50;;;;;;5041024;28;20028;-74
2021/06/11 00:58:23;;;;;;;6.72;4.03;;;19.50;62.50;;;;;;5037261;28;20377;-74
2021/06/11 01:00:49;;;;;;;4.35;3.60;;;19.50;62.80;;;;;;5038362;28;20025;-75
2021/06/11 01:03:17;;;;;;;6.57;4.15;;;19.50;62.60;;;;;;5040863;28;20382;-75
2021/06/11 01:05:43;;;;;;;6.75;3.83;;;19.50;62.80;;;;;;5040580;28;20409;-74
2021/06/11 01:08:11;;;;;;;4.30;3.90;;;19.40;62.80;;;;;;5040803;28;20093;-74
2021/06/11 01:10:38;;;;;;;6.05;4.22;;;19.40;63.20;;;;;;5040777;28;20099;-75
2021/06/11 01:13:04;;;;;;;5.70;4.20;;;19.30;63.40;;;;;;5039037;28;20017;-75
2021/06/11 01:15:30;;;;;;;7.35;5.10;;;19.20;63.60;;;;;;5038751;28;20113;-75
2021/06/11 01:17:56;;;;;;;5.72;4.63;;;19.10;63.60;;;;;;5038956;28;20124;-74
2021/06/11 01:20:23;;;;;;;5.63;4.03;;;18.90;63.80;;;;;;5039599;28;20148;-75
2021/06/11 01:23:07;;;;;;;5.63;4.38;;;18.70;64.60;;;;;;5040351;28;20403;-74
2021/06/11 01:25:57;;;;;;;4.20;3.72;;;18.40;65.10;;;;;;5039430;28;20033;-75
2021/06/11 01:28:25;;;;;;;7.13;5.25;;;18.40;66.10;;;;;;5039993;28;20033;-75
2021/06/11 01:30:54;;;;;;;9.70;5.65;;;18.40;66.50;;;;;;5040343;28;20026;-75
2021/06/11 01:33:21;;;;;;;7.47;4.00;;;18.20;66.80;;;;;;5036583;28;20378;-75
2021/06/11 01:36:11;;;;;;;7.93;5.88;;;18.00;67.30;;;;;;5040736;28;20026;-75
2021/06/11 01:38:40;;;;;;;6.78;5.45;;;17.80;67.50;;;;;;5038637;28;20167;-75
2021/06/11 01:41:15;;;;;;;8.82;7.82;;;17.60;68.40;;;;;;5040302;28;20495;-75
2021/06/11 01:43:42;;;;;;;10.18;5.63;;;17.60;68.90;;;;;;5039907;28;20057;-75
2021/06/11 01:46:16;;;;;;;9.68;7.85;;;17.60;68.60;;;;;;5040252;28;20025;-75
2021/06/11 01:48:45;;;;;;;22.63;15.50;;;17.70;69.00;;;;;;5037433;28;20030;-75
2021/06/11 01:51:12;;;;;;;9.75;8.57;;;18.00;68.30;;;;;;5039684;28;20479;-75
2021/06/11 01:53:40;;;;;;;22.20;13.82;;;18.10;68.20;;;;;;5039678;28;20029;-75
2021/06/11 01:56:07;;;;;;;21.75;16.58;;;18.10;68.20;;;;;;5036990;28;20043;-75
2021/06/11 01:58:34;;;;;;;23.63;17.73;;;18.10;68.30;;;;;;5038672;28;20127;-75
2021/06/11 02:01:00;;;;;;;38.08;27.08;;;18.00;68.30;;;;;;5039704;28;20021;-75
2021/06/11 02:03:27;;;;;;;13.85;10.02;;;18.00;68.20;;;;;;5039553;28;20493;-75
2021/06/11 02:05:53;;;;;;;11.45;7.97;;;18.00;68.50;;;;;;5038334;28;20029;-75
2021/06/11 02:08:20;;;;;;;18.80;15.10;;;17.80;68.80;;;;;;5039656;28;20077;-75
2021/06/11 02:10:47;;;;;;;23.55;19.15;;;17.90;68.80;;;;;;5040341;28;20067;-75
2021/06/11 02:13:13;;;;;;;9.52;7.60;;;17.80;68.60;;;;;;5039914;28;20559;-75
2021/06/11 02:15:39;;;;;;;11.77;8.40;;;17.70;69.10;;;;;;5037458;28;20042;-75
2021/06/11 02:18:05;;;;;;;13.90;7.53;;;17.80;69.70;;;;;;5040140;28;20076;-75
2021/06/11 02:20:31;;;;;;;7.95;7.05;;;17.80;69.30;;;;;;5038178;28;20361;-75
2021/06/11 02:22:57;;;;;;;9.70;6.90;;;17.80;69.30;;;;;;5039075;28;20025;-75
2021/06/11 02:25:27;;;;;;;12.27;7.32;;;17.60;70.10;;;;;;5036267;28;20033;-75
2021/06/11 02:27:55;;;;;;;15.13;7.22;;;17.60;69.70;;;;;;5040012;28;20087;-76
2021/06/11 02:30:20;;;;;;;9.52;6.07;;;17.40;69.90;;;;;;5037093;28;20029;-76
2021/06/11 02:32:47;;;;;;;6.97;6.13;;;17.30;70.80;;;;;;5039067;28;20017;-76
2021/06/11 02:35:24;;;;;;;8.52;6.07;;;17.50;70.40;;;;;;5037507;28;20043;-76
2021/06/11 02:37:51;;;;;;;7.55;5.97;;;17.70;70.20;;;;;;5039429;28;20087;-75
2021/06/11 02:40:17;;;;;;;7.78;5.65;;;17.80;69.80;;;;;;5037399;28;20433;-75
2021/06/11 02:42:47;;;;;;;5.95;5.05;;;17.90;69.90;;;;;;5039336;28;20025;-75
2021/06/11 02:45:15;;;;;;;6.53;5.65;;;18.00;69.50;;;;;;5038307;28;20029;-75
2021/06/11 02:47:52;;;;;;;8.02;6.28;;;18.10;69.20;;;;;;5038750;28;20107;-75
2021/06/11 02:50:22;;;;;;;6.25;5.60;;;18.20;69.20;;;;;;5038273;28;20053;-76
2021/06/11 02:52:52;;;;;;;8.13;6.55;;;18.20;69.20;;;;;;5039868;28;20565;-76
2021/06/11 02:55:21;;;;;;;7.57;6.00;;;18.20;69.20;;;;;;5039247;28;20037;-76
2021/06/11 02:57:53;;;;;;;9.70;6.70;;;18.20;69.30;;;;;;5036598;28;20127;-76
2021/06/11 03:00:20;;;;;;;8.70;5.88;;;18.10;69.30;;;;;;5036994;28;20037;-76
2021/06/11 03:02:51;;;;;;;5.88;4.72;;;17.80;69.70;;;;;;5038791;28;20036;-76
2021/06/11 03:05:19;;;;;;;11.98;5.75;;;17.50;70.80;;;;;;5038237;28;20024;-76
2021/06/11 03:07:47;;;;;;;6.35;4.90;;;17.30;70.80;;;;;;5037782;28;20028;-75
2021/06/11 03:10:14;;;;;;;6.43;5.40;;;17.20;71.10;;;;;;5022250;28;20040;-76
2021/06/11 03:12:42;;;;;;;5.50;5.00;;;17.30;71.40;;;;;;5037492;28;20029;-76
2021/06/11 03:15:09;;;;;;;6.90;5.40;;;17.30;71.30;;;;;;5039202;28;20041;-76
2021/06/11 03:17:50;;;;;;;9.90;6.25;;;17.50;71.10;;;;;;5035111;28;20045;-76
2021/06/11 03:20:23;;;;;;;7.22;4.95;;;17.60;70.80;;;;;;5036366;28;20087;-76
2021/06/11 03:22:57;;;;;;;5.95;5.30;;;17.70;70.70;;;;;;5038216;28;20106;-75
2021/06/11 03:25:28;;;;;;;8.07;5.20;;;17.80;70.60;;;;;;5036510;28;20045;-76
2021/06/11 03:27:58;;;;;;;7.00;5.13;;;17.90;70.40;;;;;;5038545;28;20518;-76
2021/06/11 03:30:26;;;;;;;8.23;6.22;;;17.90;70.40;;;;;;5035935;28;20420;-75
2021/06/11 03:32:57;;;;;;;5.88;5.28;;;18.00;70.40;;;;;;5037291;28;20105;-76
2021/06/11 03:35:34;;;;;;;6.70;5.20;;;17.90;70.20;;;;;;5036397;28;20029;-76
2021/06/11 03:38:03;;;;;;;10.05;5.25;;;17.90;70.60;;;;;;5037466;28;20116;-75
2021/06/11 03:40:31;;;;;;;8.38;5.97;;;18.00;70.60;;;;;;5038901;28;20124;-75
2021/06/11 03:42:58;;;;;;;12.32;5.30;;;18.20;70.50;;;;;;5021077;28;20033;-75
2021/06/11 03:45:24;;;;;;;6.35;5.75;;;18.40;70.50;;;;;;5037716;28;20029;-75
2021/06/11 03:47:52;;;;;;;6.75;5.43;;;18.60;70.50;;;;;;5035622;28;20045;-75
2021/06/11 03:50:21;;;;;;;6.60;5.68;;;18.90;70.10;;;;;;5035277;28;20395;-75
2021/06/11 03:52:49;;;;;;;7.40;5.03;;;19.10;69.40;;;;;;5037531;28;20108;-75
2021/06/11 03:55:28;;;;;;;7.13;4.95;;;19.00;69.00;;;;;;5037733;28;20034;-75
2021/06/11 03:58:17;;;;;;;6.50;4.38;;;18.80;69.20;;;;;;5037818;28;20033;-75
2021/06/11 04:00:44;;;;;;;5.65;5.05;;;18.70;69.30;;;;;;5037442;28;20061;-75
2021/06/11 04:03:10;;;;;;;8.02;5.82;;;18.60;69.40;;;;;;5036949;28;20040;-75
2021/06/11 04:05:36;;;;;;;9.63;4.88;;;18.50;69.50;;;;;;5033371;28;20563;-75
2021/06/11 04:08:06;;;;;;;11.18;6.05;;;18.60;69.90;;;;;;5039000;28;20052;-75
2021/06/11 04:10:43;;;;;;;7.32;5.20;;;18.90;69.80;;;;;;5032608;28;20029;-75
2021/06/11 04:13:17;;;;;;;5.90;5.28;;;19.10;69.70;;;;;;5038430;28;20021;-75
2021/06/11 04:15:47;;;;;;;7.43;5.03;;;19.20;69.50;;;;;;5038374;28;20022;-75
2021/06/11 04:18:15;;;;;;;7.72;5.82;;;19.30;69.30;;;;;;5038210;28;20112;-75
2021/06/11 04:20:43;;;;;;;5.65;4.55;;;19.40;69.30;;;;;;5039135;28;20104;-75
2021/06/11 04:23:10;;;;;;;9.38;5.43;;;19.50;69.20;;;;;;5041430;28;20060;-77
2021/06/11 04:25:38;;;;;;;8.43;4.65;;;19.80;68.60;;;;;;5038891;28;20503;-78
2021/06/11 04:28:06;;;;;;;6.75;4.97;;;20.00;68.10;;;;;;5040382;28;20017;-77
2021/06/11 04:30:32;;;;;;;6.75;4.32;;;20.20;67.70;;;;;;5042213;28;20029;-78
2021/06/11 04:32:58;;;;;;;8.80;5.18;;;20.30;67.40;;;;;;5041816;28;20567;-77
2021/06/11 04:35:25;;;;;;;11.57;5.30;;;20.40;67.00;;;;;;5042245;28;20115;-78
2021/06/11 04:37:51;;;;;;;6.20;4.28;;;20.60;66.90;;;;;;5041253;28;20029;-78
2021/06/11 04:40:18;;;;;;;9.52;5.00;;;20.90;67.00;;;;;;5039748;28;20451;-79
2021/06/11 04:42:43;;;;;;;7.18;4.88;;;21.20;65.80;;;;;;5039489;28;20084;-75
2021/06/11 04:45:10;;;;;;;8.38;5.78;;;21.40;65.10;;;;;;5040100;28;20037;-78
2021/06/11 04:47:35;;;;;;;10.27;4.82;;;21.70;64.60;;;;;;5039076;28;20105;-79
2021/06/11 04:50:01;;;;;;;7.82;4.57;;;21.90;63.40;;;;;;5027803;28;20104;-78
2021/06/11 04:52:26;;;;;;;5.25;4.63;;;22.20;63.10;;;;;;5031260;28;20029;-78
2021/06/11 04:54:52;;;;;;;10.93;5.07;;;22.50;62.70;;;;;;5022937;28;20555;-78
2021/06/11 04:57:17;;;;;;;8.13;4.95;;;22.80;62.10;;;;;;5015310;28;20040;-79
2021/06/11 04:59:43;;;;;;;8.40;5.85;;;23.10;61.90;;;;;;5032582;28;20052;-78
2021/06/11 05:02:09;;;;;;;11.20;6.25;;;23.30;61.20;;;;;;5041911;28;20033;-78
2021/06/11 05:04:35;;;;;;;10.75;7.80;;;23.50;60.90;;;;;;5032191;28;20037;-78
2021/06/11 05:07:01;;;;;;;11.73;6.25;;;23.70;60.30;;;;;;5036695;28;20017;-78
2021/06/11 05:09:27;;;;;;;28.67;8.35;;;24.00;58.90;;;;;;5022976;28;20516;-77
2021/06/11 05:11:52;;;;;;;25.70;9.10;;;24.10;58.60;;;;;;5022963;28;20041;-78
2021/06/11 05:14:18;;;;;;;17.63;9.75;;;24.30;58.70;;;;;;5023614;28;21405;-78
2021/06/11 05:16:44;;;;;;;20.35;7.40;;;24.60;58.50;;;;;;5022431;28;20572;-76
2021/06/11 05:19:09;;;;;;;29.40;7.45;;;24.90;57.40;;;;;;5030069;28;20024;-70
2021/06/11 05:21:35;;;;;;;36.20;9.45;;;25.20;56.20;;;;;;5034928;28;20094;-70
2021/06/11 05:24:01;;;;;;;22.75;7.82;;;25.20;56.00;;;;;;5022853;28;20064;-70
2021/06/11 05:26:26;;;;;;;19.75;8.18;;;25.10;55.60;;;;;;5028701;28;20108;-70
2021/06/11 05:28:52;;;;;;;24.85;12.48;;;25.00;55.70;;;;;;5018714;28;20115;-70
2021/06/11 05:31:17;;;;;;;16.67;8.73;;;25.00;55.20;;;;;;5024056;28;20507;-70
2021/06/11 05:33:43;;;;;;;44.75;14.57;;;25.00;55.10;;;;;;5020663;28;20037;-70
2021/06/11 05:36:09;;;;;;;44.65;13.95;;;24.90;55.10;;;;;;5023987;28;20029;-69
2021/06/11 05:38:34;;;;;;;27.98;13.13;;;24.90;55.40;;;;;;5023874;28;20039;-69
2021/06/11 05:41:02;;;;;;;31.33;12.27;;;25.00;55.30;;;;;;5023622;28;20570;-69
2021/06/11 05:43:28;;;;;;;28.83;14.63;;;25.00;55.30;;;;;;5022971;28;20522;-69
2021/06/11 05:45:54;;;;;;;26.77;10.55;;;25.00;54.80;;;;;;5020633;28;20037;-69
2021/06/11 05:48:19;;;;;;;44.90;13.30;;;24.90;55.30;;;;;;5023881;28;20037;-69
2021/06/11 05:50:45;;;;;;;21.55;9.10;;;24.70;55.10;;;;;;5025949;28;20028;-69
2021/06/11 05:53:11;;;;;;;23.70;11.93;;;24.70;55.10;;;;;;5021780;28;20085;-70
2021/06/11 05:55:36;;;;;;;15.88;8.15;;;24.70;55.50;;;;;;5023577;28;20034;-77
2021/06/11 05:58:02;;;;;;;20.52;8.55;;;24.80;55.30;;;;;;5027188;28;20107;-75
2021/06/11 06:00:27;;;;;;;18.30;8.35;;;24.90;56.00;;;;;;5025991;28;20654;-75
2021/06/11 06:02:53;;;;;;;22.92;7.13;;;25.00;55.60;;;;;;5024212;28;20042;-76
2021/06/11 06:05:19;;;;;;;15.40;7.00;;;25.10;55.40;;;;;;5020270;28;20025;-76
2021/06/11 06:07:44;;;;;;;20.83;12.07;;;25.30;54.70;;;;;;5025447;28;20025;-75
2021/06/11 06:10:10;;;;;;;21.60;8.88;;;25.30;54.70;;;;;;5020541;28;20071;-77
2021/06/11 06:12:36;;;;;;;23.63;10.45;;;25.40;54.20;;;;;;5013767;28;20037;-76
2021/06/11 06:15:04;;;;;;;29.25;15.15;;;25.40;54.30;;;;;;5019947;28;20083;-76
2021/06/11 06:17:34;;;;;;;31.90;13.77;;;25.30;54.10;;;;;;5019075;28;20099;-77
2021/06/11 06:20:07;;;;;;;56.15;15.98;;;25.30;53.90;;;;;;5027488;28;20021;-77
2021/06/11 06:22:33;;;;;;;53.53;19.67;;;25.30;54.10;;;;;;5021291;28;20404;-76
2021/06/11 06:24:59;;;;;;;40.45;18.13;;;25.30;54.20;;;;;;5040087;28;20032;-76
2021/06/11 06:27:24;;;;;;;38.92;16.67;;;25.30;54.30;;;;;;5023935;28;20029;-76
2021/06/11 06:29:50;;;;;;;37.47;16.67;;;25.40;54.00;;;;;;5017921;28;20243;-75
2021/06/11 06:32:15;;;;;;;33.28;15.90;;;25.30;54.10;;;;;;5023591;28;20025;-75
2021/06/11 06:34:41;;;;;;;30.60;12.90;;;25.20;54.20;;;;;;5023706;28;20257;-75
2021/06/11 06:37:10;;;;;;;28.80;14.20;;;25.30;54.00;;;;;;5022162;28;20091;-75
2021/06/11 06:39:37;;;;;;;31.52;13.25;;;25.50;53.60;;;;;;5025488;28;20681;-74
2021/06/11 06:42:03;;;;;;;23.45;13.00;;;25.50;53.10;;;;;;5019915;28;20103;-74
2021/06/11 06:44:29;;;;;;;30.92;11.68;;;25.50;52.60;;;;;;5021477;28;20276;-74
2021/06/11 06:47:11;;;;;;;19.98;9.38;;;25.40;52.80;;;;;;5033742;28;20052;-77
2021/06/11 06:49:37;;;;;;;20.25;10.13;;;25.50;52.10;;;;;;5036938;28;20041;-79
2021/06/11 06:52:03;;;;;;;24.55;8.90;;;25.40;52.50;;;;;;5036210;28;20029;-75
2021/06/11 06:54:29;;;;;;;18.90;9.93;;;25.40;52.20;;;;;;5037630;28;20400;-74
2021/06/11 06:56:55;;;;;;;18.88;8.82;;;25.40;52.00;;;;;;5038341;28;20026;-74
2021/06/11 06:59:21;;;;;;;14.43;8.45;;;25.30;52.20;;;;;;5035432;28;20022;-79
2021/06/11 07:01:56;;;;;;;17.88;8.13;;;25.30;51.80;;;;;;5038679;28;20021;-78
2021/06/11 07:04:23;;;;;;;17.83;10.20;;;25.30;52.40;;;;;;5037507;28;20044;-78
2021/06/11 07:06:49;;;;;;;16.00;8.85;;;25.50;52.40;;;;;;5039438;28;20376;-77
2021/06/11 07:09:16;;;;;;;13.98;7.53;;;25.60;51.90;;;;;;5037700;28;20032;-77
2021/06/11 07:11:42;;;;;;;18.55;6.75;;;25.80;52.00;;;;;;5039386;28;20021;-76
2021/06/11 07:14:07;;;;;;;13.32;6.57;;;25.80;51.50;;;;;;5031805;28;20416;-78
2021/06/11 07:16:33;;;;;;;10.30;5.90;;;25.70;51.50;;;;;;5042745;28;20071;-75
2021/06/11 07:18:58;;;;;;;13.65;5.93;;;25.90;51.60;;;;;;5038475;28;20124;-76
2021/06/11 07:21:24;;;;;;;12.50;5.50;;;25.80;51.40;;;;;;5036498;28;20395;-75
2021/06/11 07:24:07;;;;;;;9.80;5.22;;;25.90;50.90;;;;;;5052848;28;20033;-77
2021/06/11 07:26:33;;;;;;;11.60;5.47;;;25.90;51.40;;;;;;5036147;28;20029;-79
2021/06/11 07:28:59;;;;;;;36.70;8.77;;;26.10;51.40;;;;;;5035718;28;20510;-72
2021/06/11 07:31:25;;;;;;;34.20;5.93;;;26.20;51.30;;;;;;5033626;28;20715;-70
2021/06/11 07:33:50;;;;;;;11.55;3.75;;;26.40;51.10;;;;;;5035809;28;20488;-73
2021/06/11 07:36:16;;;;;;;9.38;4.13;;;26.40;50.40;;;;;;5042990;28;20040;-74
2021/06/11 07:38:42;;;;;;;12.60;4.13;;;26.40;50.00;;;;;;5038087;28;20033;-75
2021/06/11 07:41:07;;;;;;;9.95;4.53;;;26.50;50.10;;;;;;5037588;28;20047;-75
2021/06/11 07:43:33;;;;;;;8.23;5.03;;;26.50;49.40;;;;;;5053772;28;20028;-75
2021/06/11 07:45:58;;;;;;;10.20;4.93;;;26.50;49.20;;;;;;5037017;28;20041;-75
2021/06/11 07:48:24;;;;;;;6.50;3.75;;;26.50;49.20;;;;;;5036528;28;20330;-73
2021/06/11 07:50:50;;;;;;;7.97;4.13;;;26.60;49.60;;;;;;5032947;28;20021;-72
2021/06/11 07:53:15;;;;;;;8.85;5.30;;;26.70;49.30;;;;;;5038990;28;20029;-73
2021/06/11 07:55:41;;;;;;;12.90;6.80;;;26.80;49.10;;;;;;5038046;28;20029;-72
2021/06/11 07:58:33;;;;;;;12.45;7.57;;;26.90;48.90;;;;;;5040565;28;20037;-73
2021/06/11 08:01:03;;;;;;;17.60;7.75;;;27.00;48.90;;;;;;5024434;28;20676;-77
2021/06/11 08:03:30;;;;;;;17.27;8.68;;;27.10;49.00;;;;;;5020658;28;20050;-75
2021/06/11 08:05:58;;;;;;;13.98;7.50;;;27.00;48.10;;;;;;5039060;28;20112;-76
2021/06/11 08:08:24;;;;;;;17.75;7.63;;;26.90;48.90;;;;;;5039578;28;20575;-75
2021/06/11 08:10:49;;;;;;;26.73;10.23;;;27.00;49.20;;;;;;5040069;28;20419;-74
2021/06/11 08:13:15;;;;;;;22.10;8.75;;;27.10;47.60;;;;;;5040668;28;20029;-80
2021/06/11 08:15:40;;;;;;;20.20;7.35;;;27.10;47.80;;;;;;5039639;28;20030;-80
2021/06/11 08:18:06;;;;;;;18.05;6.65;;;27.10;48.40;;;;;;5040258;28;20060;-78
2021/06/11 08:20:32;;;;;;;14.07;7.28;;;27.10;47.60;;;;;;5040806;28;20032;-80
2021/06/11 08:22:57;;;;;;;13.88;7.50;;;27.20;48.00;;;;;;5042049;28;20062;-76
2021/06/11 08:25:24;;;;;;;19.73;7.40;;;27.20;47.50;;;;;;5041820;28;20674;-77
2021/06/11 08:27:50;;;;;;;92.40;15.80;;;27.20;47.80;;;;;;5045833;28;20029;-78
2021/06/11 08:30:16;;;;;;;38.55;8.98;;;27.30;47.50;;;;;;5041544;28;20037;-79
2021/06/11 08:32:42;;;;;;;14.02;5.45;;;27.50;47.10;;;;;;5025153;28;20110;-76
2021/06/11 08:35:08;;;;;;;27.00;7.32;;;27.60;47.40;;;;;;5041271;28;20025;-81
2021/06/11 08:37:34;;;;;;;8.75;5.40;;;27.70;47.10;;;;;;5040681;28;20036;-76
2021/06/11 08:40:02;;;;;;;13.13;5.43;;;27.80;46.70;;;;;;5038249;28;20339;-81
2021/06/11 08:42:30;;;;;;;11.27;5.00;;;27.90;46.40;;;;;;5047674;28;20378;-78
2021/06/11 08:45:05;;;;;;;11.18;5.10;;;28.00;45.30;;;;;;5040687;28;20036;-76
2021/06/11 08:47:31;;;;;;;9.95;4.97;;;28.00;45.70;;;;;;5037537;28;20029;-75
2021/06/11 08:49:57;;;;;;;8.38;3.50;;;27.70;45.40;;;;;;5040304;28;20030;-76
2021/06/11 08:52:24;;;;;;;9.52;3.28;;;27.70;46.20;;;;;;5039563;28;20032;-76
2021/06/11 08:54:50;;;;;;;9.88;4.05;;;27.80;45.50;;;;;;5040513;28;20176;-77
2021/06/11 08:57:17;;;;;;;3.92;2.38;;;27.70;45.70;;;;;;5037698;28;20038;-77
2021/06/11 08:59:45;;;;;;;5.53;2.58;;;27.70;46.50;;;;;;5036609;28;20056;-76
2021/06/11 09:02:11;;;;;;;7.25;3.30;;;28.10;47.00;;;;;;5037850;28;20098;-79
2021/06/11 09:05:25;;;;;;;6.70;2.38;;;28.30;45.60;;;;;;5041562;28;20522;-77
2021/06/11 09:08:11;;;;;;;9.68;3.95;;;28.40;46.10;;;;;;5040652;28;20090;-78
2021/06/11 09:10:36;;;;;;;6.65;3.00;;;28.30;46.20;;;;;;5038836;28;20378;-81
2021/06/11 09:13:05;;;;;;;6.63;3.25;;;28.10;46.10;;;;;;5041005;28;20104;-82
2021/06/11 09:15:34;;;;;;;3.97;2.50;;;28.00;46.50;;;;;;5038172;28;20063;-82
2021/06/11 09:18:00;;;;;;;2.95;2.65;;;28.00;46.50;;;;;;5039737;28;20021;-78
2021/06/11 09:20:41;;;;;;;5.05;2.22;;;28.20;46.30;;;;;;5037535;28;20416;-78
2021/06/11 09:23:08;;;;;;;7.93;3.13;;;28.20;45.70;;;;;;5042288;28;20040;-82
2021/06/11 09:25:45;;;;;;;3.80;2.90;;;28.00;45.40;;;;;;5044022;28;20037;-82
2021/06/11 09:28:14;;;;;;;6.25;1.90;;;27.60;46.10;;;;;;5043065;28;20021;-81
2021/06/11 09:30:47;;;;;;;7.78;2.75;;;27.60;47.40;;;;;;5052008;28;20450;-76
2021/06/11 09:33:15;;;;;;;16.55;3.05;;;27.90;47.10;;;;;;5056784;28;20096;-80
2021/06/11 09:35:55;;;;;;;9.15;3.33;;;28.10;46.80;;;;;;5055182;28;20064;-79
2021/06/11 09:38:25;;;;;;;7.38;3.03;;;28.30;46.50;;;;;;5039499;28;20369;-73
2021/06/11 09:40:57;;;;;;;7.50;2.28;;;28.20;46.40;;;;;;5037533;28;20444;-74
2021/06/11 09:43:23;;;;;;;6.25;2.42;;;28.20;46.80;;;;;;5039889;28;20455;-75
2021/06/11 09:46:04;;;;;;;5.72;2.60;;;28.30;46.80;;;;;;5037411;28;20087;-79
2021/06/11 09:48:39;;;;;;;7.60;2.33;;;28.50;47.30;;;;;;5023002;28;20029;-77
2021/06/11 09:51:24;;;;;;;16.27;3.40;;;28.70;47.00;;;;;;5038896;28;20507;-80
2021/06/11 09:53:51;;;;;;;11.75;3.22;;;28.60;46.90;;;;;;5035399;28;20115;-78
2021/06/11 09:56:27;;;;;;;9.75;3.63;;;28.50;46.40;;;;;;5038045;28;20029;-74
2021/06/11 09:58:55;;;;;;;4.95;3.13;;;28.30;46.60;;;;;;5035128;28;20576;-74
2021/06/11 10:01:21;;;;;;;3.97;3.50;;;27.80;49.10;;;;;;5038964;28;20064;-72
2021/06/11 10:03:49;;;;;;;6.47;2.75;;;27.30;48.50;;;;;;5038686;28;20025;-72
2021/06/11 10:06:17;;;;;;;8.35;2.80;;;27.10;48.80;;;;;;5039773;28;20391;-71
2021/06/11 10:08:45;;;;;;;3.72;3.10;;;27.10;49.00;;;;;;5039110;28;20357;-71
2021/06/11 10:11:13;;;;;;;4.28;3.17;;;27.50;49.10;;;;;;5040483;28;20387;-72
2021/06/11 10:13:40;;;;;;;7.30;2.97;;;27.70;48.80;;;;;;5037403;28;20039;-72
2021/06/11 10:16:11;;;;;;;8.75;3.47;;;28.00;49.20;;;;;;5040546;28;20022;-71
2021/06/11 10:18:38;;;;;;;5.57;2.90;;;28.50;48.70;;;;;;5036010;28;20382;-71
2021/06/11 10:21:05;;;;;;;6.57;3.13;;;28.70;47.60;;;;;;5037644;28;20025;-72
2021/06/11 10:23:32;;;;;;;9.40;4.20;;;28.70;47.60;;;;;;5037741;28;20032;-72
2021/06/11 10:26:00;;;;;;;7.13;3.55;;;28.60;47.70;;;;;;5040503;28;20029;-71
2021/06/11 10:28:28;;;;;;;11.30;3.58;;;28.40;48.10;;;;;;5037118;28;22127;-72
2021/06/11 10:31:01;;;;;;;13.02;4.55;;;28.20;48.00;;;;;;5039545;28;20035;-73
2021/06/11 10:33:50;;;;;;;5.35;3.72;;;27.90;48.20;;;;;;5039312;28;20104;-73
2021/06/11 10:36:40;;;;;;;3.15;2.40;;;27.70;48.00;;;;;;5036579;28;20504;-76
2021/06/11 10:39:16;;;;;;;8.20;3.22;;;27.60;48.50;;;;;;5031175;28;20124;-73
2021/06/11 10:42:01;;;;;;;6.78;2.47;;;27.90;47.40;;;;;;5040334;28;20029;-72
2021/06/11 10:44:52;;;;;;;5.95;3.05;;;28.10;48.00;;;;;;5037718;28;20106;-80
2021/06/11 10:47:17;;;;;;;5.55;4.18;;;28.40;47.80;;;;;;5039682;28;20224;-80
2021/06/11 10:49:58;;;;;;;14.05;4.13;;;28.50;46.90;;;;;;5039200;28;20446;-80
2021/06/11 10:52:53;;;;;;;3.45;3.03;;;28.60;47.40;;;;;;5022958;28;20037;-74
2021/06/11 10:55:18;;;;;;;4.90;4.13;;;28.90;46.60;;;;;;5030651;28;20583;-76
2021/06/11 10:57:53;;;;;;;4.60;3.08;;;28.80;46.70;;;;;;5021973;28;20060;-75
2021/06/11 11:00:22;;;;;;;3.60;3.30;;;28.60;47.30;;;;;;5037155;28;20574;-72
2021/06/11 11:02:50;;;;;;;5.15;3.97;;;28.30;48.00;;;;;;5035758;28;20049;-73
2021/06/11 11:05:37;;;;;;;7.28;3.50;;;28.20;48.10;;;;;;5037667;28;20037;-74
2021/06/11 11:08:18;;;;;;;103.65;11.38;;;28.10;48.60;;;;;;5004989;28;20084;-74
2021/06/11 11:10:52;;;;;;;10.50;4.07;;;28.20;48.70;;;;;;5035917;28;20049;-75
2021/06/11 11:13:28;;;;;;;14.57;4.00;;;28.20;48.80;;;;;;5052260;28;20151;-75
2021/06/11 11:15:58;;;;;;;4.72;4.20;;;27.90;49.20;;;;;;5038313;28;20013;-73
2021/06/11 11:18:33;;;;;;;8.50;4.05;;;27.50;50.20;;;;;;5036509;28;20029;-77
2021/06/11 11:21:00;;;;;;;10.20;4.70;;;27.10;51.20;;;;;;5021813;28;20024;-78
2021/06/11 11:23:28;;;;;;;11.50;4.25;;;27.00;51.50;;;;;;5038053;28;20171;-76
2021/06/11 11:25:54;;;;;;;8.18;3.72;;;27.10;51.50;;;;;;5035825;28;20029;-78
2021/06/11 11:28:20;;;;;;;6.20;4.38;;;27.40;50.80;;;;;;5042276;28;20483;-77
2021/06/11 11:30:48;;;;;;;6.25;4.10;;;27.50;49.90;;;;;;5035556;28;20025;-78
2021/06/11 11:33:15;;;;;;;5.88;4.05;;;27.40;50.20;;;;;;5038317;28;20488;-74
2021/06/11 11:35:51;;;;;;;5.78;3.67;;;27.20;50.30;;;;;;5038258;28;20455;-73
2021/06/11 11:38:16;;;;;;;7.10;4.60;;;27.30;50.50;;;;;;5033724;28;20494;-74
2021/06/11 11:40:42;;;;;;;6.22;3.53;;;27.40;48.70;;;;;;5036168;28;20025;-73
2021/06/11 11:43:08;;;;;;;10.70;5.80;;;27.10;49.20;;;;;;5035109;28;21569;-74
2021/06/11 11:45:34;;;;;;;8.52;5.20;;;27.00;49.90;;;;;;5037750;28;20022;-75
2021/06/11 11:48:04;;;;;;;11.13;4.57;;;27.30;50.10;;;;;;5037652;28;20532;-74
2021/06/11 11:50:34;;;;;;;4.82;3.25;;;27.60;49.90;;;;;;5037735;28;20036;-71
2021/06/11 11:53:00;;;;;;;7.65;5.07;;;27.60;48.90;;;;;;5036517;28;20022;-72
2021/06/11 11:55:26;;;;;;;5.50;3.63;;;27.60;49.70;;;;;;5036955;28;20033;-73
2021/06/11 11:57:52;;;;;;;4.60;3.25;;;27.70;48.50;;;;;;5034530;28;20040;-73
2021/06/11 12:00:18;;;;;;;3.22;2.58;;;27.60;49.00;;;;;;5036281;28;20377;-75
2021/06/11 12:02:44;;;;;;;3.90;3.60;;;27.60;49.70;;;;;;5034861;28;20473;-75
2021/06/11 12:05:11;;;;;;;4.32;3.58;;;27.80;49.50;;;;;;5036360;28;20036;-78
2021/06/11 12:07:37;;;;;;;4.47;3.90;;;27.70;47.60;;;;;;5036003;28;20107;-75
2021/06/11 12:10:03;;;;;;;5.35;3.47;;;27.40;48.30;;;;;;5036006;28;20148;-73
2021/06/11 12:12:28;;;;;;;6.03;3.72;;;27.20;49.60;;;;;;5034786;28;20052;-72
2021/06/11 12:14:54;;;;;;;5.22;2.67;;;27.20;49.00;;;;;;5038069;28;20122;-72
2021/06/11 12:17:20;;;;;;;5.28;2.63;;;27.40;49.20;;;;;;5034523;28;20022;-78
2021/06/11 12:19:45;;;;;;;21.77;3.90;;;27.70;48.20;;;;;;5037083;28;20530;-79
2021/06/11 12:22:13;;;;;;;4.68;3.10;;;27.90;47.90;;;;;;5036165;28;20048;-78
2021/06/11 12:24:39;;;;;;;19.45;3.85;;;27.90;47.00;;;;;;5038148;28;20017;-80
2021/06/11 12:27:05;;;;;;;15.30;2.95;;;27.80;47.60;;;;;;5041286;28;20032;-76
2021/06/11 12:29:30;;;;;;;35.55;4.55;;;27.80;47.60;;;;;;5035833;28;20021;-75
2021/06/11 12:31:56;;;;;;;12.60;4.20;;;28.00;47.10;;;;;;5036055;28;20029;-75
2021/06/11 12:34:22;;;;;;;6.30;2.65;;;28.30;47.30;;;;;;5034201;28;20396;-76
2021/06/11 12:36:47;;;;;;;6.10;3.00;;;28.30;46.90;;;;;;5034204;28;20032;-77
2021/06/11 12:39:13;;;;;;;3.20;2.78;;;28.10;47.80;;;;;;5039369;28;20033;-82
2021/06/11 12:41:39;;;;;;;11.80;3.45;;;28.10;47.70;;;;;;5037810;28;20057;-75
2021/06/11 12:44:16;;;;;;;3.28;2.90;;;28.10;47.70;;;;;;5041386;28;20064;-78
2021/06/11 12:46:51;;;;;;;5.43;2.40;;;28.20;47.60;;;;;;5038036;28;20036;-76